Flight Track Log - Related Links

Times and Time Zones

All times are in EDT time to prevent confusion due to time zone crossing. See the N510SR flight status page for this flight to view local times or setup timezone preferences in your user account.

Time Position Orientation Groundspeed Altitude Reporting Facility
EDT Latitude Longitude Course Direction KTS MPH feet Rate Location/Type
Wed 11:06:08 PM 40.9167 -74.0500 360° North 220 253 2,800  Level New York TRACON
Wed 11:07:08 PM 40.9000 -74.1500 258° West 269 310 4,000 600 Climbing New York TRACON
Wed 11:08:08 PM 40.8833 -74.2500 258° West 277 319 4,000  Level New York TRACON
Wed 11:09:08 PM 40.8667 -74.3500 258° West 276 318 4,000  Level New York TRACON
Wed 11:11:00 PM 40.7878 -74.4513 224° Southwest  Level FlightAware Approximate
Wed 11:18:00 PM 40.5571 -74.8969 266° West  Level FlightAware Approximate
Wed 11:19:00 PM 40.5525 -74.9742 266° West  Level FlightAware Approximate
Wed 11:20:00 PM 40.5498 -75.0517 261° West  Level FlightAware Approximate
Wed 11:21:00 PM 40.5402 -75.1282 261° West  Level FlightAware Approximate
Wed 11:22:00 PM 40.5364 -75.2046 281° West  Level FlightAware Approximate
Wed 11:23:00 PM 40.5473 -75.2809 281° West  Level FlightAware Approximate
Wed 11:24:00 PM 40.5500 -75.3581 270° West  Level FlightAware Approximate
Wed 11:25:00 PM 40.5519 -75.4355 278° West  Level FlightAware Approximate
Wed 11:26:00 PM 40.5596 -75.5124 278° West  Level FlightAware Approximate
Wed 11:27:00 PM 40.5667 -75.5894 270° West  Level FlightAware Approximate
Wed 11:28:00 PM 40.5667 -75.6670 270° West  Level FlightAware Approximate
Wed 11:29:00 PM 40.5833 -75.6286 90° East  Level FlightAware Approximate
Wed 11:30:00 PM 40.6074 -75.5632 75° East  Level FlightAware Approximate
Wed 11:31:00 PM 40.6271 -75.4905 62° Northeast  Level FlightAware Approximate
Wed 11:32:00 PM 40.6500 -75.4333 62° Northeast  Level FlightAware Approximate

Login

Don't have an account? Register now (free) for customized features, flight alerts, and more!